KETB

West Bend Municipal Airport

West Bend, Wisconsin, USA
METAR KETB 211435Z AUTO 08007KT 4SM RA OVC004 10/10 A3017 RMK AO2 P0009
Observed Flight Rules
May-21 @ 14:35 UTC (10 minutes ago) Instrument Flight Rules
Wind Visibility Clouds Conditions
80° at 7 knots 4 miles
  • Overcast at 400' AGL
  • Rain
Temperatures Readings Precipitation
Current 10°C / 50°F
Dewpoint 10°C / 50°F
Humidity 100%
Altimeter 30.17" Hg
Pressure 1022 hPa
Elevation 270
Current Rain 0.09
METAR KETB 211435Z AUTO 08007KT 4SM RA OVC004 10/10 A3017 RMK AO2 P0009
Observed Flight Rules
May-21 @ 14:35 UTC
(10 minutes ago)
LIFR
Wind Visibility
80° at 7 knots 4 miles
Clouds
  • Overcast at 400' AGL
Conditions
  • Rain
Temperature Dewpoint
10°C / 50°F 10°C / 50°F
Humidity Altimeter Pressure
100% 30.17" Hg 1022 hPa
Current Rain
0.09